Terminal Aerodrome Forecast
Issued by NWS Twin Cities, MN

Home | Current Version | Previous Version | Graphics & Text | Print | Product List | Glossary On
Versions: 1 2 3 4 5 6 7 8 9 10 11 12 13 14 15 16 17 18 19 20
000
FTUS43 KMPX 240524
TAFEAU
TAF
KEAU 240524Z 2406/2506 07004KT P6SM SCT070 OVC120
     FM241400 10006KT P6SM VCSH OVC050
     FM241700 15009KT 4SM -RA OVC025
     FM250000 08009KT 6SM -DZ BR OVC009=

USA.gov is the U.S. government's official web portal to all federal, state and local government web resources and services.